sensor_id;sensor_type;location;lat;lon;timestamp;pressure;altitude;pressure_sealevel;temperature;humidity
24620;BME280;12763;55.802;37.404;2022-09-09T00:03:45;100242.94;;;9.09;76.54
24620;BME280;12763;55.802;37.404;2022-09-09T00:06:34;100245.44;;;9.04;76.96
24620;BME280;12763;55.802;37.404;2022-09-09T00:09:11;100241.75;;;9.11;76.96
24620;BME280;12763;55.802;37.404;2022-09-09T00:11:48;100243.06;;;9.01;77.61
24620;BME280;12763;55.802;37.404;2022-09-09T00:14:29;100240.59;;;9.06;77.32
24620;BME280;12763;55.802;37.404;2022-09-09T00:17:04;100240.28;;;9.15;76.81
24620;BME280;12763;55.802;37.404;2022-09-09T00:19:41;100238.56;;;9.14;76.96
24620;BME280;12763;55.802;37.404;2022-09-09T00:22:17;100239.31;;;9.23;76.58
24620;BME280;12763;55.802;37.404;2022-09-09T00:24:49;100240.69;;;9.12;77.34
24620;BME280;12763;55.802;37.404;2022-09-09T00:27:23;100249.31;;;9.24;77.11
24620;BME280;12763;55.802;37.404;2022-09-09T00:30:17;100246.94;;;9.21;77.64
24620;BME280;12763;55.802;37.404;2022-09-09T00:32:47;100253.28;;;9.21;76.88
24620;BME280;12763;55.802;37.404;2022-09-09T00:35:18;100253.47;;;9.20;77.20
24620;BME280;12763;55.802;37.404;2022-09-09T00:37:50;100249.41;;;9.30;76.59
24620;BME280;12763;55.802;37.404;2022-09-09T00:42:59;100261.56;;;9.21;77.04
24620;BME280;12763;55.802;37.404;2022-09-09T00:48:02;100260.25;;;9.03;77.87
24620;BME280;12763;55.802;37.404;2022-09-09T00:53:30;100271.75;;;8.92;77.98
24620;BME280;12763;55.802;37.404;2022-09-09T00:58:34;100270.91;;;8.91;78.65
24620;BME280;12763;55.802;37.404;2022-09-09T01:01:07;100277.06;;;8.93;78.60
24620;BME280;12763;55.802;37.404;2022-09-09T01:06:43;100281.91;;;8.91;78.86
24620;BME280;12763;55.802;37.404;2022-09-09T01:27:51;100291.56;;;8.87;78.37
24620;BME280;12763;55.802;37.404;2022-09-09T01:30:19;100299.94;;;8.79;79.00
24620;BME280;12763;55.802;37.404;2022-09-09T01:32:48;100293.38;;;8.80;78.74
24620;BME280;12763;55.802;37.404;2022-09-09T01:38:00;100298.41;;;8.91;79.00
24620;BME280;12763;55.802;37.404;2022-09-09T01:40:26;100305.69;;;8.55;80.15
24620;BME280;12763;55.802;37.404;2022-09-09T01:42:54;100309.63;;;8.75;79.23
24620;BME280;12763;55.802;37.404;2022-09-09T01:45:22;100310.56;;;8.82;78.90
24620;BME280;12763;55.802;37.404;2022-09-09T01:47:48;100319.09;;;8.87;78.62
24620;BME280;12763;55.802;37.404;2022-09-09T01:50:24;100319.56;;;8.76;78.79
24620;BME280;12763;55.802;37.404;2022-09-09T01:52:58;100308.16;;;8.64;79.45
24620;BME280;12763;55.802;37.404;2022-09-09T01:55:35;100310.28;;;8.77;79.25
24620;BME280;12763;55.802;37.404;2022-09-09T02:03:52;100321.66;;;8.74;79.57
24620;BME280;12763;55.802;37.404;2022-09-09T02:08:57;100326.38;;;8.65;79.29
24620;BME280;12763;55.802;37.404;2022-09-09T02:11:27;100330.16;;;8.64;79.60
24620;BME280;12763;55.802;37.404;2022-09-09T02:14:14;100325.16;;;8.68;79.86
24620;BME280;12763;55.802;37.404;2022-09-09T02:16:55;100335.13;;;8.69;79.83
24620;BME280;12763;55.802;37.404;2022-09-09T02:19:32;100330.81;;;8.52;80.20
24620;BME280;12763;55.802;37.404;2022-09-09T02:22:10;100332.78;;;8.43;80.58
24620;BME280;12763;55.802;37.404;2022-09-09T02:24:38;100333.41;;;8.53;80.31
24620;BME280;12763;55.802;37.404;2022-09-09T02:27:20;100338.41;;;8.50;80.08
24620;BME280;12763;55.802;37.404;2022-09-09T02:29:49;100336.19;;;8.45;80.34
24620;BME280;12763;55.802;37.404;2022-09-09T02:32:23;100342.63;;;8.38;80.94
24620;BME280;12763;55.802;37.404;2022-09-09T02:35:13;100340.88;;;8.45;81.23
24620;BME280;12763;55.802;37.404;2022-09-09T02:37:42;100341.97;;;8.36;81.01
24620;BME280;12763;55.802;37.404;2022-09-09T02:40:13;100350.44;;;8.26;81.51
24620;BME280;12763;55.802;37.404;2022-09-09T02:42:47;100349.13;;;8.45;80.85
24620;BME280;12763;55.802;37.404;2022-09-09T02:45:16;100356.75;;;8.35;81.16
24620;BME280;12763;55.802;37.404;2022-09-09T02:50:35;100355.06;;;8.34;81.25
24620;BME280;12763;55.802;37.404;2022-09-09T02:53:16;100363.84;;;8.52;80.56
24620;BME280;12763;55.802;37.404;2022-09-09T02:55:58;100357.53;;;8.43;80.88
24620;BME280;12763;55.802;37.404;2022-09-09T02:58:31;100368.13;;;8.32;81.14
24620;BME280;12763;55.802;37.404;2022-09-09T03:01:02;100363.34;;;8.25;81.21
24620;BME280;12763;55.802;37.404;2022-09-09T03:03:30;100369.47;;;8.36;80.74
24620;BME280;12763;55.802;37.404;2022-09-09T03:05:57;100368.84;;;8.25;81.17
24620;BME280;12763;55.802;37.404;2022-09-09T03:08:26;100361.19;;;8.13;81.68
24620;BME280;12763;55.802;37.404;2022-09-09T03:10:58;100359.97;;;8.15;81.96
24620;BME280;12763;55.802;37.404;2022-09-09T03:13:29;100366.13;;;8.17;81.53
24620;BME280;12763;55.802;37.404;2022-09-09T03:15:55;100375.44;;;8.16;81.42
24620;BME280;12763;55.802;37.404;2022-09-09T03:18:21;100374.50;;;8.24;81.42
24620;BME280;12763;55.802;37.404;2022-09-09T03:20:50;100375.03;;;8.27;81.38
24620;BME280;12763;55.802;37.404;2022-09-09T03:23:18;100376.03;;;8.26;81.71
24620;BME280;12763;55.802;37.404;2022-09-09T03:25:49;100381.19;;;8.52;80.91
24620;BME280;12763;55.802;37.404;2022-09-09T03:28:19;100385.47;;;8.55;80.53
24620;BME280;12763;55.802;37.404;2022-09-09T03:30:47;100386.28;;;8.41;80.67
24620;BME280;12763;55.802;37.404;2022-09-09T03:33:15;100383.59;;;8.33;81.30
24620;BME280;12763;55.802;37.404;2022-09-09T03:35:49;100392.63;;;8.41;80.79
24620;BME280;12763;55.802;37.404;2022-09-09T03:38:18;100396.63;;;8.39;80.72
24620;BME280;12763;55.802;37.404;2022-09-09T03:40:51;100389.66;;;8.28;81.38
24620;BME280;12763;55.802;37.404;2022-09-09T03:43:22;100393.94;;;8.31;81.22
24620;BME280;12763;55.802;37.404;2022-09-09T03:45:50;100396.31;;;8.34;81.26
24620;BME280;12763;55.802;37.404;2022-09-09T03:48:24;100398.38;;;8.32;81.50
24620;BME280;12763;55.802;37.404;2022-09-09T03:50:54;100404.19;;;8.37;81.29
24620;BME280;12763;55.802;37.404;2022-09-09T03:53:24;100401.38;;;8.45;81.22
24620;BME280;12763;55.802;37.404;2022-09-09T03:55:53;100399.78;;;8.27;81.45
24620;BME280;12763;55.802;37.404;2022-09-09T03:58:23;100403.53;;;8.26;81.62
24620;BME280;12763;55.802;37.404;2022-09-09T04:01:16;100405.47;;;8.49;81.09
24620;BME280;12763;55.802;37.404;2022-09-09T04:03:44;100403.50;;;8.57;80.64
24620;BME280;12763;55.802;37.404;2022-09-09T04:06:11;100402.09;;;8.61;80.37
24620;BME280;12763;55.802;37.404;2022-09-09T04:08:42;100408.88;;;8.51;80.59
24620;BME280;12763;55.802;37.404;2022-09-09T04:11:08;100410.44;;;8.68;80.10
24620;BME280;12763;55.802;37.404;2022-09-09T04:13:37;100412.47;;;8.74;79.57
24620;BME280;12763;55.802;37.404;2022-09-09T04:16:09;100411.66;;;8.88;79.30
24620;BME280;12763;55.802;37.404;2022-09-09T04:18:37;100416.31;;;8.65;80.00
24620;BME280;12763;55.802;37.404;2022-09-09T04:21:03;100414.25;;;8.67;79.70
24620;BME280;12763;55.802;37.404;2022-09-09T04:23:33;100419.84;;;8.73;79.85
24620;BME280;12763;55.802;37.404;2022-09-09T04:26:01;100410.63;;;8.89;79.07
24620;BME280;12763;55.802;37.404;2022-09-09T04:28:30;100416.63;;;8.70;80.07
24620;BME280;12763;55.802;37.404;2022-09-09T04:31:04;100417.72;;;8.83;79.35
24620;BME280;12763;55.802;37.404;2022-09-09T04:33:30;100403.38;;;8.88;78.70
24620;BME280;12763;55.802;37.404;2022-09-09T04:35:57;100412.59;;;8.95;78.42
24620;BME280;12763;55.802;37.404;2022-09-09T04:38:25;100422.38;;;8.98;78.38
24620;BME280;12763;55.802;37.404;2022-09-09T04:40:53;100422.41;;;9.12;77.96
24620;BME280;12763;55.802;37.404;2022-09-09T04:43:20;100425.44;;;9.17;77.54
24620;BME280;12763;55.802;37.404;2022-09-09T04:45:50;100417.78;;;9.27;77.29
24620;BME280;12763;55.802;37.404;2022-09-09T04:48:19;100422.16;;;9.22;77.25
24620;BME280;12763;55.802;37.404;2022-09-09T04:51:14;100428.22;;;9.47;76.62
24620;BME280;12763;55.802;37.404;2022-09-09T04:53:41;100433.06;;;9.44;76.48
24620;BME280;12763;55.802;37.404;2022-09-09T04:56:12;100429.75;;;9.49;76.08
24620;BME280;12763;55.802;37.404;2022-09-09T04:58:43;100431.16;;;9.45;76.56
24620;BME280;12763;55.802;37.404;2022-09-09T05:01:15;100429.00;;;9.55;75.85
24620;BME280;12763;55.802;37.404;2022-09-09T05:03:44;100429.09;;;9.47;75.73
24620;BME280;12763;55.802;37.404;2022-09-09T05:06:14;100434.19;;;9.65;75.49
24620;BME280;12763;55.802;37.404;2022-09-09T05:08:42;100431.72;;;9.70;75.04
24620;BME280;12763;55.802;37.404;2022-09-09T05:11:32;100437.53;;;9.75;74.87
24620;BME280;12763;55.802;37.404;2022-09-09T05:14:05;100436.41;;;9.69;75.12
24620;BME280;12763;55.802;37.404;2022-09-09T05:16:31;100441.59;;;9.79;74.44
24620;BME280;12763;55.802;37.404;2022-09-09T05:18:58;100444.75;;;9.76;74.33
24620;BME280;12763;55.802;37.404;2022-09-09T05:21:27;100442.94;;;9.83;74.30
24620;BME280;12763;55.802;37.404;2022-09-09T05:23:54;100448.53;;;9.89;74.02
24620;BME280;12763;55.802;37.404;2022-09-09T05:26:21;100445.75;;;10.04;73.60
24620;BME280;12763;55.802;37.404;2022-09-09T05:28:50;100455.28;;;10.16;73.00
24620;BME280;12763;55.802;37.404;2022-09-09T05:31:18;100458.13;;;9.93;73.64
24620;BME280;12763;55.802;37.404;2022-09-09T05:33:48;100444.03;;;10.03;73.41
24620;BME280;12763;55.802;37.404;2022-09-09T05:36:17;100450.13;;;10.13;73.27
24620;BME280;12763;55.802;37.404;2022-09-09T05:38:46;100455.03;;;10.32;72.44
24620;BME280;12763;55.802;37.404;2022-09-09T05:41:13;100452.31;;;10.39;71.75
24620;BME280;12763;55.802;37.404;2022-09-09T05:43:44;100448.31;;;10.41;71.57
24620;BME280;12763;55.802;37.404;2022-09-09T05:46:14;100449.66;;;10.67;71.29
24620;BME280;12763;55.802;37.404;2022-09-09T05:48:42;100451.88;;;10.56;70.81
24620;BME280;12763;55.802;37.404;2022-09-09T05:51:15;100452.78;;;10.63;70.81
24620;BME280;12763;55.802;37.404;2022-09-09T05:53:42;100454.38;;;10.73;70.49
24620;BME280;12763;55.802;37.404;2022-09-09T05:56:11;100453.47;;;10.66;70.20
24620;BME280;12763;55.802;37.404;2022-09-09T05:58:38;100450.38;;;10.75;69.96
24620;BME280;12763;55.802;37.404;2022-09-09T06:01:12;100464.66;;;10.57;70.33
24620;BME280;12763;55.802;37.404;2022-09-09T06:03:42;100462.47;;;10.95;69.88
24620;BME280;12763;55.802;37.404;2022-09-09T06:06:14;100472.72;;;11.01;69.20
24620;BME280;12763;55.802;37.404;2022-09-09T06:08:43;100467.59;;;10.98;68.35
24620;BME280;12763;55.802;37.404;2022-09-09T06:11:18;100474.06;;;11.12;67.84
24620;BME280;12763;55.802;37.404;2022-09-09T06:13:45;100460.59;;;11.30;67.35
24620;BME280;12763;55.802;37.404;2022-09-09T06:16:16;100472.19;;;11.40;67.45
24620;BME280;12763;55.802;37.404;2022-09-09T06:18:43;100472.91;;;11.55;66.77
24620;BME280;12763;55.802;37.404;2022-09-09T06:21:21;100471.97;;;11.42;66.28
24620;BME280;12763;55.802;37.404;2022-09-09T06:23:48;100476.84;;;11.40;66.60
24620;BME280;12763;55.802;37.404;2022-09-09T06:26:25;100483.78;;;11.29;65.87
24620;BME280;12763;55.802;37.404;2022-09-09T06:28:53;100491.53;;;11.40;65.38
24620;BME280;12763;55.802;37.404;2022-09-09T06:31:22;100487.03;;;11.39;64.15
24620;BME280;12763;55.802;37.404;2022-09-09T06:33:52;100482.00;;;11.49;63.35
24620;BME280;12763;55.802;37.404;2022-09-09T06:36:21;100482.00;;;11.49;62.10
24620;BME280;12763;55.802;37.404;2022-09-09T06:38:48;100473.19;;;11.67;62.14
24620;BME280;12763;55.802;37.404;2022-09-09T06:41:17;100485.47;;;11.86;62.05
24620;BME280;12763;55.802;37.404;2022-09-09T06:43:48;100489.03;;;11.79;61.21
24620;BME280;12763;55.802;37.404;2022-09-09T06:46:17;100482.63;;;11.72;60.90
24620;BME280;12763;55.802;37.404;2022-09-09T06:48:45;100489.31;;;11.91;61.28
24620;BME280;12763;55.802;37.404;2022-09-09T06:51:19;100498.19;;;12.14;60.61
24620;BME280;12763;55.802;37.404;2022-09-09T06:53:53;100498.88;;;11.89;61.04
24620;BME280;12763;55.802;37.404;2022-09-09T06:58:55;100500.59;;;11.90;59.49
24620;BME280;12763;55.802;37.404;2022-09-09T07:01:28;100493.59;;;11.94;60.63
24620;BME280;12763;55.802;37.404;2022-09-09T07:03:59;100502.78;;;12.48;58.58
24620;BME280;12763;55.802;37.404;2022-09-09T07:06:28;100502.13;;;12.46;58.76
24620;BME280;12763;55.802;37.404;2022-09-09T07:09:02;100504.78;;;12.80;57.58
24620;BME280;12763;55.802;37.404;2022-09-09T07:11:33;100513.53;;;12.84;57.44
24620;BME280;12763;55.802;37.404;2022-09-09T07:14:00;100514.16;;;12.73;56.98
24620;BME280;12763;55.802;37.404;2022-09-09T07:16:27;100520.06;;;12.63;57.73
24620;BME280;12763;55.802;37.404;2022-09-09T07:18:54;100515.88;;;12.80;56.85
24620;BME280;12763;55.802;37.404;2022-09-09T07:21:28;100518.06;;;12.31;57.75
24620;BME280;12763;55.802;37.404;2022-09-09T07:23:55;100515.69;;;12.28;58.45
24620;BME280;12763;55.802;37.404;2022-09-09T07:26:27;100515.28;;;12.37;56.93
24620;BME280;12763;55.802;37.404;2022-09-09T07:28:55;100512.78;;;12.43;57.35
24620;BME280;12763;55.802;37.404;2022-09-09T07:31:31;100519.63;;;12.12;57.74
24620;BME280;12763;55.802;37.404;2022-09-09T07:33:58;100520.59;;;12.32;57.12
24620;BME280;12763;55.802;37.404;2022-09-09T07:36:30;100529.88;;;12.59;56.43
24620;BME280;12763;55.802;37.404;2022-09-09T07:38:59;100525.84;;;12.68;56.06
24620;BME280;12763;55.802;37.404;2022-09-09T07:41:33;100529.94;;;12.85;55.77
24620;BME280;12763;55.802;37.404;2022-09-09T07:44:05;100534.09;;;13.22;53.77
24620;BME280;12763;55.802;37.404;2022-09-09T07:46:32;100536.22;;;13.46;53.58
24620;BME280;12763;55.802;37.404;2022-09-09T07:49:00;100542.41;;;13.55;52.63
24620;BME280;12763;55.802;37.404;2022-09-09T07:51:35;100536.78;;;14.07;51.46
24620;BME280;12763;55.802;37.404;2022-09-09T07:54:04;100541.84;;;14.37;51.20
24620;BME280;12763;55.802;37.404;2022-09-09T07:56:33;100546.09;;;14.39;51.62
24620;BME280;12763;55.802;37.404;2022-09-09T07:59:00;100542.94;;;14.80;50.17
24620;BME280;12763;55.802;37.404;2022-09-09T08:01:29;100539.91;;;14.88;49.84
24620;BME280;12763;55.802;37.404;2022-09-09T08:04:02;100544.41;;;15.14;49.10
24620;BME280;12763;55.802;37.404;2022-09-09T08:06:32;100542.22;;;14.91;48.19
24620;BME280;12763;55.802;37.404;2022-09-09T08:08:59;100537.94;;;15.26;47.69
24620;BME280;12763;55.802;37.404;2022-09-09T08:11:27;100534.41;;;15.38;48.03
24620;BME280;12763;55.802;37.404;2022-09-09T08:13:55;100539.53;;;15.41;48.22
24620;BME280;12763;55.802;37.404;2022-09-09T08:16:23;100547.09;;;15.58;48.15
24620;BME280;12763;55.802;37.404;2022-09-09T08:18:51;100542.47;;;15.21;48.08
24620;BME280;12763;55.802;37.404;2022-09-09T08:21:20;100548.97;;;15.33;48.94
24620;BME280;12763;55.802;37.404;2022-09-09T08:23:47;100556.66;;;15.06;49.52
24620;BME280;12763;55.802;37.404;2022-09-09T08:26:16;100554.66;;;14.38;50.47
24620;BME280;12763;55.802;37.404;2022-09-09T08:28:45;100550.41;;;14.16;50.63
24620;BME280;12763;55.802;37.404;2022-09-09T08:31:14;100553.91;;;13.65;52.39
24620;BME280;12763;55.802;37.404;2022-09-09T08:33:42;100550.28;;;13.65;52.58
24620;BME280;12763;55.802;37.404;2022-09-09T08:36:19;100557.09;;;13.82;51.49
24620;BME280;12763;55.802;37.404;2022-09-09T08:38:51;100552.13;;;14.10;51.01
24620;BME280;12763;55.802;37.404;2022-09-09T08:41:34;100555.94;;;14.35;49.78
24620;BME280;12763;55.802;37.404;2022-09-09T08:44:23;100560.53;;;14.61;48.19
24620;BME280;12763;55.802;37.404;2022-09-09T08:50:22;100555.97;;;14.22;49.28
24620;BME280;12763;55.802;37.404;2022-09-09T08:53:05;100558.81;;;13.76;50.47
24620;BME280;12763;55.802;37.404;2022-09-09T08:56:00;100559.63;;;13.90;50.62
24620;BME280;12763;55.802;37.404;2022-09-09T08:58:35;100562.00;;;13.80;50.54
24620;BME280;12763;55.802;37.404;2022-09-09T09:01:39;100565.00;;;13.65;50.17
24620;BME280;12763;55.802;37.404;2022-09-09T09:07:11;100572.66;;;13.96;50.62
24620;BME280;12763;55.802;37.404;2022-09-09T09:09:46;100571.84;;;13.49;51.32
24620;BME280;12763;55.802;37.404;2022-09-09T09:12:23;100573.53;;;13.57;50.07
24620;BME280;12763;55.802;37.404;2022-09-09T09:14:51;100570.13;;;13.75;50.61
24620;BME280;12763;55.802;37.404;2022-09-09T09:17:20;100566.22;;;14.22;49.50
24620;BME280;12763;55.802;37.404;2022-09-09T09:19:49;100572.53;;;14.55;48.52
24620;BME280;12763;55.802;37.404;2022-09-09T09:22:22;100576.19;;;14.49;48.33
24620;BME280;12763;55.802;37.404;2022-09-09T09:25:23;100564.66;;;14.90;45.95
24620;BME280;12763;55.802;37.404;2022-09-09T09:28:13;100559.63;;;15.49;45.21
24620;BME280;12763;55.802;37.404;2022-09-09T09:30:58;100566.63;;;15.20;45.42
24620;BME280;12763;55.802;37.404;2022-09-09T09:36:08;100561.47;;;15.24;47.04
24620;BME280;12763;55.802;37.404;2022-09-09T09:38:36;100564.66;;;14.90;47.51
24620;BME280;12763;55.802;37.404;2022-09-09T09:41:04;100563.38;;;14.92;47.46
24620;BME280;12763;55.802;37.404;2022-09-09T09:43:36;100569.44;;;14.83;47.28
24620;BME280;12763;55.802;37.404;2022-09-09T09:46:20;100559.34;;;14.44;47.26
24620;BME280;12763;55.802;37.404;2022-09-09T09:49:03;100562.19;;;14.75;47.73
24620;BME280;12763;55.802;37.404;2022-09-09T09:51:32;100569.88;;;14.80;47.85
24620;BME280;12763;55.802;37.404;2022-09-09T09:54:09;100558.34;;;15.39;46.29
24620;BME280;12763;55.802;37.404;2022-09-09T09:56:40;100563.75;;;16.08;44.87
24620;BME280;12763;55.802;37.404;2022-09-09T10:01:53;100561.69;;;16.21;43.92
24620;BME280;12763;55.802;37.404;2022-09-09T10:04:22;100563.31;;;15.68;45.19
24620;BME280;12763;55.802;37.404;2022-09-09T10:06:54;100570.28;;;15.14;46.30
24620;BME280;12763;55.802;37.404;2022-09-09T10:09:29;100570.38;;;15.01;46.09
24620;BME280;12763;55.802;37.404;2022-09-09T10:12:01;100569.00;;;14.86;46.91
24620;BME280;12763;55.802;37.404;2022-09-09T10:14:42;100571.53;;;14.87;46.28
24620;BME280;12763;55.802;37.404;2022-09-09T10:20:45;100562.09;;;16.43;43.37
24620;BME280;12763;55.802;37.404;2022-09-09T10:23:39;100575.56;;;17.83;40.87
24620;BME280;12763;55.802;37.404;2022-09-09T10:31:39;100568.00;;;15.36;44.37
24620;BME280;12763;55.802;37.404;2022-09-09T10:34:26;100581.84;;;15.11;43.50
24620;BME280;12763;55.802;37.404;2022-09-09T10:36:59;100576.47;;;15.54;44.15
24620;BME280;12763;55.802;37.404;2022-09-09T10:39:35;100573.13;;;16.13;43.03
24620;BME280;12763;55.802;37.404;2022-09-09T10:55:23;100584.41;;;15.44;43.58
24620;BME280;12763;55.802;37.404;2022-09-09T10:57:58;100581.97;;;15.29;44.21
24620;BME280;12763;55.802;37.404;2022-09-09T11:00:31;100581.19;;;16.21;43.44
24620;BME280;12763;55.802;37.404;2022-09-09T11:03:04;100592.69;;;18.22;39.82
24620;BME280;12763;55.802;37.404;2022-09-09T11:05:44;100575.00;;;19.19;36.28
24620;BME280;12763;55.802;37.404;2022-09-09T11:08:20;100575.00;;;20.14;34.99
24620;BME280;12763;55.802;37.404;2022-09-09T11:13:30;100580.63;;;18.67;38.41
24620;BME280;12763;55.802;37.404;2022-09-09T11:16:05;100582.34;;;17.99;38.65
24620;BME280;12763;55.802;37.404;2022-09-09T11:18:40;100572.50;;;17.02;40.53
24620;BME280;12763;55.802;37.404;2022-09-09T11:21:17;100569.81;;;16.41;41.38
24620;BME280;12763;55.802;37.404;2022-09-09T11:23:54;100583.19;;;17.65;40.62
24620;BME280;12763;55.802;37.404;2022-09-09T11:26:32;100570.97;;;17.47;40.92
24620;BME280;12763;55.802;37.404;2022-09-09T11:35:01;100572.28;;;16.13;43.08
24620;BME280;12763;55.802;37.404;2022-09-09T11:42:46;100584.97;;;17.29;41.35
24620;BME280;12763;55.802;37.404;2022-09-09T11:45:26;100581.38;;;18.40;38.41
24620;BME280;12763;55.802;37.404;2022-09-09T11:47:57;100570.53;;;19.79;37.08
24620;BME280;12763;55.802;37.404;2022-09-09T11:52:49;100575.16;;;21.22;34.40
24620;BME280;12763;55.802;37.404;2022-09-09T11:55:27;100568.50;;;22.23;32.20
24620;BME280;12763;55.802;37.404;2022-09-09T11:58:02;100567.06;;;22.63;31.27
24620;BME280;12763;55.802;37.404;2022-09-09T12:00:41;100563.34;;;22.99;31.53
24620;BME280;12763;55.802;37.404;2022-09-09T12:05:57;100560.44;;;22.84;32.31
24620;BME280;12763;55.802;37.404;2022-09-09T12:08:28;100573.19;;;22.50;31.44
24620;BME280;12763;55.802;37.404;2022-09-09T12:10:58;100567.41;;;22.24;32.08
24620;BME280;12763;55.802;37.404;2022-09-09T12:13:26;100567.81;;;20.18;34.79
24620;BME280;12763;55.802;37.404;2022-09-09T12:15:55;100568.22;;;19.31;35.08
24620;BME280;12763;55.802;37.404;2022-09-09T12:18:25;100561.63;;;20.54;33.86
24620;BME280;12763;55.802;37.404;2022-09-09T12:32:06;100557.00;;;19.15;34.82
24620;BME280;12763;55.802;37.404;2022-09-09T12:34:46;100559.59;;;21.36;32.13
24620;BME280;12763;55.802;37.404;2022-09-09T12:37:37;100557.44;;;21.75;31.03
24620;BME280;12763;55.802;37.404;2022-09-09T12:40:14;100568.38;;;21.18;32.59
24620;BME280;12763;55.802;37.404;2022-09-09T12:42:44;100569.38;;;22.66;31.39
24620;BME280;12763;55.802;37.404;2022-09-09T12:45:20;100556.78;;;23.66;29.29
24620;BME280;12763;55.802;37.404;2022-09-09T12:50:53;100555.69;;;24.12;27.20
24620;BME280;12763;55.802;37.404;2022-09-09T12:53:27;100555.59;;;24.47;28.00
24620;BME280;12763;55.802;37.404;2022-09-09T12:56:18;100555.00;;;25.79;26.19
24620;BME280;12763;55.802;37.404;2022-09-09T12:58:47;100549.72;;;24.29;27.92
24620;BME280;12763;55.802;37.404;2022-09-09T13:01:29;100553.31;;;22.19;29.21
24620;BME280;12763;55.802;37.404;2022-09-09T13:03:57;100557.06;;;20.70;32.50
24620;BME280;12763;55.802;37.404;2022-09-09T13:06:24;100553.47;;;19.64;33.89
24620;BME280;12763;55.802;37.404;2022-09-09T13:08:51;100557.00;;;19.15;34.83
24620;BME280;12763;55.802;37.404;2022-09-09T13:11:35;100565.56;;;18.45;35.61
24620;BME280;12763;55.802;37.404;2022-09-09T13:14:03;100560.38;;;18.02;36.37
24620;BME280;12763;55.802;37.404;2022-09-09T13:16:31;100561.09;;;17.98;36.91
24620;BME280;12763;55.802;37.404;2022-09-09T13:19:06;100564.63;;;17.93;37.18
24620;BME280;12763;55.802;37.404;2022-09-09T13:21:38;100552.91;;;17.50;38.02
24620;BME280;12763;55.802;37.404;2022-09-09T13:26:59;100553.66;;;16.86;39.23
24620;BME280;12763;55.802;37.404;2022-09-09T13:29:30;100564.34;;;16.53;39.65
24620;BME280;12763;55.802;37.404;2022-09-09T13:32:05;100562.63;;;16.33;40.65
24620;BME280;12763;55.802;37.404;2022-09-09T13:34:34;100557.38;;;16.25;40.81
24620;BME280;12763;55.802;37.404;2022-09-09T13:37:06;100560.19;;;16.62;40.24
24620;BME280;12763;55.802;37.404;2022-09-09T13:39:34;100555.16;;;18.17;37.93
24620;BME280;12763;55.802;37.404;2022-09-09T13:42:03;100556.69;;;18.71;36.86
24620;BME280;12763;55.802;37.404;2022-09-09T13:44:35;100553.69;;;18.15;37.66
24620;BME280;12763;55.802;37.404;2022-09-09T13:49:30;100556.16;;;17.47;38.31
24620;BME280;12763;55.802;37.404;2022-09-09T13:52:11;100550.03;;;17.27;38.69
24620;BME280;12763;55.802;37.404;2022-09-09T13:54:40;100552.81;;;17.27;38.76
24620;BME280;12763;55.802;37.404;2022-09-09T13:57:21;100543.00;;;17.24;38.65
24620;BME280;12763;55.802;37.404;2022-09-09T13:59:48;100554.06;;;17.31;38.54
24620;BME280;12763;55.802;37.404;2022-09-09T14:02:15;100542.25;;;17.17;38.79
24620;BME280;12763;55.802;37.404;2022-09-09T14:04:43;100544.69;;;16.66;39.80
24620;BME280;12763;55.802;37.404;2022-09-09T14:07:15;100550.47;;;16.82;39.95
24620;BME280;12763;55.802;37.404;2022-09-09T14:09:43;100543.47;;;18.32;37.45
24620;BME280;12763;55.802;37.404;2022-09-09T14:12:11;100540.63;;;19.07;36.66
24620;BME280;12763;55.802;37.404;2022-09-09T14:14:38;100538.81;;;20.45;34.70
24620;BME280;12763;55.802;37.404;2022-09-09T14:17:07;100539.97;;;22.42;32.41
24620;BME280;12763;55.802;37.404;2022-09-09T14:19:33;100538.09;;;23.24;31.00
24620;BME280;12763;55.802;37.404;2022-09-09T14:22:00;100541.47;;;23.36;31.00
24620;BME280;12763;55.802;37.404;2022-09-09T14:24:28;100535.66;;;23.88;30.47
24620;BME280;12763;55.802;37.404;2022-09-09T14:26:54;100538.19;;;23.80;30.27
24620;BME280;12763;55.802;37.404;2022-09-09T14:29:21;100544.38;;;23.82;29.37
24620;BME280;12763;55.802;37.404;2022-09-09T14:31:47;100544.38;;;24.32;29.38
24620;BME280;12763;55.802;37.404;2022-09-09T14:34:13;100547.47;;;24.41;29.37
24620;BME280;12763;55.802;37.404;2022-09-09T14:36:40;100546.38;;;23.96;29.62
24620;BME280;12763;55.802;37.404;2022-09-09T14:39:07;100543.81;;;23.90;29.71
24620;BME280;12763;55.802;37.404;2022-09-09T14:41:33;100542.09;;;23.59;30.06
24620;BME280;12763;55.802;37.404;2022-09-09T14:43:59;100544.53;;;21.47;32.53
24620;BME280;12763;55.802;37.404;2022-09-09T14:46:25;100537.59;;;19.86;34.68
24620;BME280;12763;55.802;37.404;2022-09-09T14:48:52;100547.00;;;18.91;36.01
24620;BME280;12763;55.802;37.404;2022-09-09T14:51:24;100547.63;;;18.06;36.85
24620;BME280;12763;55.802;37.404;2022-09-09T14:53:58;100548.47;;;17.72;37.44
24620;BME280;12763;55.802;37.404;2022-09-09T14:56:30;100548.75;;;17.41;38.25
24620;BME280;12763;55.802;37.404;2022-09-09T14:58:58;100543.69;;;18.65;36.43
24620;BME280;12763;55.802;37.404;2022-09-09T15:01:25;100545.56;;;18.02;36.81
24620;BME280;12763;55.802;37.404;2022-09-09T15:04:02;100546.41;;;17.79;37.21
24620;BME280;12763;55.802;37.404;2022-09-09T15:06:30;100535.38;;;19.55;35.00
24620;BME280;12763;55.802;37.404;2022-09-09T15:08:59;100536.78;;;21.33;32.74
24620;BME280;12763;55.802;37.404;2022-09-09T15:11:30;100537.84;;;21.27;32.57